createdAt,value
2022-10-11T00:02:15.051Z,95621.41
2022-10-11T00:04:58.077Z,95613.81
2022-10-11T00:07:41.075Z,95613.66
2022-10-11T00:10:24.276Z,95616.91
2022-10-11T00:13:08.141Z,95626.34
2022-10-11T00:15:51.211Z,95619.28
2022-10-11T00:18:35.632Z,95618.16
2022-10-11T00:21:19.837Z,95621.78
2022-10-11T00:24:02.967Z,95622.13
2022-10-11T00:26:47.120Z,95614.53
2022-10-11T00:29:30.237Z,95612.09
2022-10-11T00:32:13.267Z,95617.31
2022-10-11T00:34:59.776Z,95611.53
2022-10-11T00:37:42.847Z,95609.59
2022-10-11T00:40:26.013Z,95607.38
2022-10-11T00:43:17.327Z,95614.75
2022-10-11T00:46:06.849Z,95608.88
2022-10-11T00:48:54.940Z,95602.78
2022-10-11T00:51:44.604Z,95592.13
2022-10-11T00:54:30.026Z,95602.44
2022-10-11T00:57:16.428Z,95598.38
2022-10-11T01:00:00.190Z,95592.56
2022-10-11T01:02:44.461Z,95594.75
2022-10-11T01:05:30.191Z,95597.91
2022-10-11T01:08:15.221Z,95597.97
2022-10-11T01:10:58.711Z,95591.47
2022-10-11T01:13:53.638Z,95594.25
2022-10-11T01:16:43.635Z,95590.19
2022-10-11T01:19:49.892Z,95570.03
2022-10-11T01:22:59.226Z,95593.00
2022-10-11T01:25:56.580Z,95591.19
2022-10-11T01:28:47.720Z,95578.44
2022-10-11T01:31:40.319Z,95589.59
2022-10-11T01:34:28.375Z,95570.03
2022-10-11T01:37:18.485Z,95588.22
2022-10-11T01:40:07.146Z,95585.19
2022-10-11T01:42:51.015Z,95574.53
2022-10-11T01:45:35.911Z,95574.53
2022-10-11T01:48:20.400Z,95584.22
2022-10-11T01:51:04.571Z,95590.63
2022-10-11T01:54:05.053Z,95589.81
2022-10-11T01:57:13.424Z,95584.66
2022-10-11T02:00:03.485Z,95585.72
2022-10-11T02:03:03.163Z,95588.84
2022-10-11T02:05:52.965Z,95588.56
2022-10-11T02:08:46.070Z,95582.78
2022-10-11T02:11:31.910Z,95580.31
2022-10-11T02:14:19.979Z,95585.53
2022-10-11T02:17:08.361Z,95583.63
2022-10-11T02:19:54.458Z,95583.84
2022-10-11T02:22:42.136Z,95584.09
2022-10-11T02:25:27.629Z,95573.94
2022-10-11T02:28:15.271Z,95570.38
2022-10-11T02:31:01.255Z,95576.97
2022-10-11T02:33:46.679Z,95578.44
2022-10-11T02:36:37.674Z,95575.44
2022-10-11T02:39:26.877Z,95580.88
2022-10-11T02:42:15.973Z,95567.16
2022-10-11T02:45:02.317Z,95570.75
2022-10-11T02:47:46.099Z,95575.97
2022-10-11T02:50:29.425Z,95569.81
2022-10-11T02:53:12.437Z,95570.63
2022-10-11T02:55:57.197Z,95566.50
2022-10-11T02:58:40.214Z,95562.97
2022-10-11T03:01:23.280Z,95560.63
2022-10-11T03:04:06.589Z,95562.06
2022-10-11T03:06:49.641Z,95559.84
2022-10-11T03:09:32.899Z,95565.41
2022-10-11T03:12:17.302Z,95558.59
2022-10-11T03:15:00.327Z,95552.97
2022-10-11T03:17:43.347Z,95558.88
2022-10-11T03:20:26.651Z,95549.19
2022-10-11T03:23:09.735Z,95560.13
2022-10-11T03:25:53.148Z,95546.94
2022-10-11T03:28:37.602Z,95545.81
2022-10-11T03:31:21.822Z,95545.00
2022-10-11T03:34:04.867Z,95547.53
2022-10-11T03:36:48.162Z,95546.59
2022-10-11T03:39:31.115Z,95545.72
2022-10-11T03:42:14.756Z,95539.78
2022-10-11T03:44:59.905Z,95542.97
2022-10-11T03:47:42.931Z,95546.53
2022-10-11T03:50:25.953Z,95546.66
2022-10-11T03:53:09.417Z,95540.34
2022-10-11T03:55:54.513Z,95545.34
2022-10-11T03:58:37.587Z,95540.94
2022-10-11T04:01:22.027Z,95534.94
2022-10-11T04:04:05.421Z,95523.28
2022-10-11T04:06:48.441Z,95531.69
2022-10-11T04:09:31.690Z,95536.03
2022-10-11T04:12:14.699Z,95532.13
2022-10-11T04:14:57.717Z,95539.22
2022-10-11T04:17:42.383Z,95535.88
2022-10-11T04:20:25.362Z,95543.72
2022-10-11T04:23:08.407Z,95544.94
2022-10-11T04:25:51.441Z,95535.31
2022-10-11T04:28:35.497Z,95539.72
2022-10-11T04:31:18.555Z,95546.88
2022-10-11T04:34:02.952Z,95535.44
2022-10-11T04:36:49.777Z,95542.53
2022-10-11T04:39:33.083Z,95547.09
2022-10-11T04:42:16.437Z,95544.84
2022-10-11T04:44:59.397Z,95540.56
2022-10-11T04:47:42.410Z,95541.16
2022-10-11T04:50:26.843Z,95532.53
2022-10-11T04:53:09.880Z,95532.59
2022-10-11T04:56:01.413Z,95537.44
2022-10-11T04:58:44.662Z,95540.34
2022-10-11T05:01:27.738Z,95536.75
2022-10-11T05:04:10.726Z,95543.69
2022-10-11T05:06:55.576Z,95540.97
2022-10-11T05:09:38.602Z,95546.69
2022-10-11T05:12:21.633Z,95545.47
2022-10-11T05:15:05.293Z,95540.59
2022-10-11T05:17:48.326Z,95534.59
2022-10-11T05:20:31.323Z,95535.75
2022-10-11T05:23:15.883Z,95547.31
2022-10-11T05:25:59.115Z,95548.38
2022-10-11T05:28:42.243Z,95549.06
2022-10-11T05:31:25.587Z,95553.59
2022-10-11T05:34:08.714Z,95552.88
2022-10-11T05:36:51.706Z,95555.50
2022-10-11T05:39:36.104Z,95565.75
2022-10-11T05:42:19.233Z,95558.72
2022-10-11T05:45:02.188Z,95549.75
2022-10-11T05:47:45.319Z,95563.75
2022-10-11T05:50:28.343Z,95562.75
2022-10-11T05:53:11.417Z,95566.13
2022-10-11T05:55:56.169Z,95572.94
2022-10-11T05:58:40.885Z,95568.53
2022-10-11T06:01:26.246Z,95560.88
2022-10-11T06:04:09.945Z,95562.00
2022-10-11T06:06:52.917Z,95564.16
2022-10-11T06:09:35.928Z,95562.00
2022-10-11T06:12:21.708Z,95554.63
2022-10-11T06:15:05.191Z,95543.50
2022-10-11T06:17:48.285Z,95545.13
2022-10-11T06:20:31.274Z,95544.69
2022-10-11T06:23:14.347Z,95538.88
2022-10-11T06:25:58.586Z,95533.66
2022-10-11T06:28:43.137Z,95546.50
2022-10-11T06:31:26.311Z,95556.25
2022-10-11T06:34:09.621Z,95547.56
2022-10-11T06:36:52.752Z,95555.66
2022-10-11T06:39:35.969Z,95556.44
2022-10-11T06:42:18.918Z,95547.94
2022-10-11T06:45:03.329Z,95558.59
2022-10-11T06:47:46.335Z,95563.72
2022-10-11T06:50:54.269Z,95563.25
2022-10-11T06:53:32.313Z,95572.81
2022-10-11T06:56:15.317Z,95581.81
2022-10-11T06:59:00.034Z,95575.00
2022-10-11T07:01:44.474Z,95571.50
2022-10-11T07:04:28.896Z,95572.41
2022-10-11T07:07:14.480Z,95571.56
2022-10-11T07:09:57.387Z,95572.50
2022-10-11T07:12:40.425Z,95562.72
2022-10-11T07:15:23.466Z,95564.66
2022-10-11T07:18:08.287Z,95559.34
2022-10-11T07:20:51.300Z,95566.34
2022-10-11T07:23:34.675Z,95567.59
2022-10-11T07:26:18.559Z,95569.19
2022-10-11T07:29:01.810Z,95571.59
2022-10-11T07:31:45.217Z,95574.59
2022-10-11T07:34:29.648Z,95570.75
2022-10-11T07:37:13.659Z,95565.22
2022-10-11T07:39:56.625Z,95567.06
2022-10-11T07:42:39.789Z,95565.81
2022-10-11T07:45:22.861Z,95564.56
2022-10-11T07:48:06.443Z,95564.50
2022-10-11T07:50:51.025Z,95567.22
2022-10-11T07:53:38.842Z,95568.59
2022-10-11T07:56:24.654Z,95563.69
2022-10-11T07:59:08.247Z,95560.28
2022-10-11T08:01:51.337Z,95549.41
2022-10-11T08:04:34.321Z,95561.16
2022-10-11T08:07:18.776Z,95558.28
2022-10-11T08:10:01.865Z,95563.47
2022-10-11T08:12:47.996Z,95560.72
2022-10-11T08:15:31.128Z,95569.38
2022-10-11T08:18:14.115Z,95577.09
2022-10-11T08:20:57.110Z,95579.34
2022-10-11T08:23:42.062Z,95583.75
2022-10-11T08:26:25.291Z,95583.78
2022-10-11T08:29:08.357Z,95584.66
2022-10-11T08:31:51.327Z,95581.25
2022-10-11T08:34:34.441Z,95584.97
2022-10-11T08:37:17.414Z,95574.41
2022-10-11T08:40:03.455Z,95574.31
2022-10-11T08:42:50.128Z,95573.81
2022-10-11T08:45:40.449Z,95568.47
2022-10-11T08:48:32.669Z,95568.91
2022-10-11T08:51:21.925Z,95570.28
2022-10-11T08:54:08.159Z,95564.63
2022-10-11T08:56:52.802Z,95571.69
2022-10-11T08:59:42.359Z,95572.31
2022-10-11T09:02:55.591Z,95576.97
2022-10-11T09:05:44.823Z,95577.31
2022-10-11T09:08:38.291Z,95574.59
2022-10-11T09:11:32.190Z,95560.09
2022-10-11T09:14:40.623Z,95568.00
2022-10-11T09:17:40.594Z,95563.34
2022-10-11T09:20:48.760Z,95566.41
2022-10-11T09:23:46.547Z,95561.34
2022-10-11T09:26:35.667Z,95554.84
2022-10-11T09:29:27.666Z,95558.25
2022-10-11T09:32:16.081Z,95560.56
2022-10-11T09:35:02.833Z,95556.19
2022-10-11T09:37:53.848Z,95563.13
2022-10-11T09:40:49.597Z,95554.38
2022-10-11T09:43:32.663Z,95556.53
2022-10-11T09:46:24.447Z,95554.97
2022-10-11T09:49:12.586Z,95549.19
2022-10-11T09:51:59.131Z,95549.47
2022-10-11T09:54:43.684Z,95542.50
2022-10-11T09:57:28.716Z,95533.31
2022-10-11T10:00:22.242Z,95533.88
2022-10-11T10:03:06.750Z,95540.34
2022-10-11T10:06:07.031Z,95537.19
2022-10-11T10:08:50.779Z,95521.91
2022-10-11T10:11:37.787Z,95523.44
2022-10-11T10:14:25.048Z,95521.84
2022-10-11T10:17:18.962Z,95518.03
2022-10-11T10:20:05.705Z,95515.50
2022-10-11T10:22:48.863Z,95516.66
2022-10-11T10:25:42.299Z,95521.28
2022-10-11T10:28:28.582Z,95517.03
2022-10-11T10:31:23.210Z,95521.69
2022-10-11T10:34:13.699Z,95503.31
2022-10-11T10:37:03.692Z,95511.75
2022-10-11T10:39:52.898Z,95505.94
2022-10-11T10:42:36.007Z,95514.22
2022-10-11T10:45:21.877Z,95505.13
2022-10-11T10:48:19.594Z,95502.78
2022-10-11T10:51:10.687Z,95502.03
2022-10-11T10:54:03.799Z,95496.56
2022-10-11T10:56:53.220Z,95493.09
2022-10-11T10:59:52.820Z,95494.66
2022-10-11T11:02:45.626Z,95495.47
2022-10-11T11:05:40.110Z,95483.84
2022-10-11T11:08:39.115Z,95480.84
2022-10-11T11:11:37.851Z,95476.94
2022-10-11T11:14:35.135Z,95478.25
2022-10-11T11:17:29.886Z,95480.94
2022-10-11T11:20:28.121Z,95482.69
2022-10-11T11:23:23.447Z,95476.06
2022-10-11T11:26:15.052Z,95477.88
2022-10-11T11:29:10.652Z,95482.72
2022-10-11T11:32:11.999Z,95470.22
2022-10-11T11:35:01.253Z,95471.47
2022-10-11T11:37:48.753Z,95465.72
2022-10-11T11:40:36.128Z,95457.47
2022-10-11T11:43:24.776Z,95461.50
2022-10-11T11:46:17.366Z,95448.34
2022-10-11T11:49:08.609Z,95455.66
2022-10-11T11:51:56.161Z,95459.81
2022-10-11T11:54:49.815Z,95456.72
2022-10-11T11:57:47.112Z,95459.84
2022-10-11T12:00:36.005Z,95461.91
2022-10-11T12:03:25.271Z,95455.09
2022-10-11T12:06:22.076Z,95443.38
2022-10-11T12:09:09.262Z,95453.81
2022-10-11T12:11:56.758Z,95460.63
2022-10-11T12:14:41.925Z,95453.00
2022-10-11T12:17:25.196Z,95457.75
2022-10-11T12:20:16.222Z,95458.78
2022-10-11T12:23:01.381Z,95459.19
2022-10-11T12:25:45.564Z,95457.53
2022-10-11T12:29:03.873Z,95465.78
2022-10-11T12:31:49.130Z,95451.06
2022-10-11T12:34:37.959Z,95445.78
2022-10-11T12:37:51.002Z,95451.53
2022-10-11T12:40:36.431Z,95445.09
2022-10-11T12:43:30.120Z,95456.75
2022-10-11T12:46:41.268Z,95452.03
2022-10-11T12:49:47.033Z,95438.88
2022-10-11T12:52:38.891Z,95448.81
2022-10-11T12:55:31.437Z,95439.78
2022-10-11T12:58:28.523Z,95438.25
2022-10-11T13:01:32.185Z,95440.28
2022-10-11T13:04:20.233Z,95438.13
2022-10-11T13:07:07.622Z,95434.41
2022-10-11T13:09:55.549Z,95438.69
2022-10-11T13:12:44.220Z,95436.44
2022-10-11T13:15:28.061Z,95447.00
2022-10-11T13:18:15.163Z,95450.06
2022-10-11T13:20:58.194Z,95442.59
2022-10-11T13:23:41.272Z,95446.16
2022-10-11T13:26:25.813Z,95439.88
2022-10-11T13:29:17.792Z,95440.13
2022-10-11T13:32:02.192Z,95445.13
2022-10-11T13:34:48.162Z,95444.56
2022-10-11T13:37:37.882Z,95437.22
2022-10-11T13:40:23.346Z,95432.00
2022-10-11T13:43:07.612Z,95442.03
2022-10-11T13:45:53.178Z,95446.78
2022-10-11T13:48:41.575Z,95446.38
2022-10-11T13:51:32.285Z,95436.41
2022-10-11T13:54:15.326Z,95431.22
2022-10-11T13:56:58.373Z,95448.91
2022-10-11T13:59:44.670Z,95433.97
2022-10-11T14:02:30.582Z,95434.53
2022-10-11T14:05:24.771Z,95442.38
2022-10-11T14:08:18.724Z,95431.59
2022-10-11T14:11:06.369Z,95433.47
2022-10-11T14:13:50.127Z,95442.34
2022-10-11T14:16:33.254Z,95435.50
2022-10-11T14:19:21.296Z,95426.50
2022-10-11T14:22:06.136Z,95430.66
2022-10-11T14:24:49.841Z,95434.16
2022-10-11T14:27:33.091Z,95440.97
2022-10-11T14:30:27.448Z,95430.38
2022-10-11T14:33:12.638Z,95434.88
2022-10-11T14:35:57.120Z,95432.44
2022-10-11T14:38:40.234Z,95426.78
2022-10-11T14:41:23.269Z,95425.13
2022-10-11T14:44:07.411Z,95425.31
2022-10-11T14:46:54.531Z,95440.59
2022-10-11T14:49:38.970Z,95431.56
2022-10-11T14:52:23.428Z,95436.16
2022-10-11T14:55:06.644Z,95433.09
2022-10-11T14:57:49.670Z,95440.44
2022-10-11T15:00:33.601Z,95444.81
2022-10-11T15:03:16.665Z,95451.41
2022-10-11T15:05:59.715Z,95447.19
2022-10-11T15:08:44.142Z,95446.78
2022-10-11T15:11:27.739Z,95434.56
2022-10-11T15:14:10.862Z,95444.25
2022-10-11T15:16:54.084Z,95446.81
2022-10-11T15:19:37.437Z,95450.09
2022-10-11T15:22:20.488Z,95446.53
2022-10-11T15:25:05.809Z,95440.97
2022-10-11T15:27:49.227Z,95444.31
2022-10-11T15:30:38.462Z,95444.31
2022-10-11T15:33:25.445Z,95451.16
2022-10-11T15:36:12.498Z,95441.75
2022-10-11T15:38:55.639Z,95447.00
2022-10-11T15:41:40.106Z,95449.38
2022-10-11T15:44:23.175Z,95445.91
2022-10-11T15:47:06.471Z,95435.25
2022-10-11T15:49:49.562Z,95451.41
2022-10-11T15:52:32.577Z,95449.03
2022-10-11T15:55:15.690Z,95455.44
2022-10-11T15:58:01.234Z,95455.78
2022-10-11T16:00:45.462Z,95458.66
2022-10-11T16:03:30.886Z,95461.03
2022-10-11T16:06:14.324Z,95466.91
2022-10-11T16:08:57.382Z,95463.94
2022-10-11T16:11:40.536Z,95465.63
2022-10-11T16:14:25.160Z,95471.88
2022-10-11T16:17:08.150Z,95470.19
2022-10-11T16:19:51.671Z,95467.81
2022-10-11T16:22:34.908Z,95477.47
2022-10-11T16:25:18.208Z,95479.34
2022-10-11T16:28:02.540Z,95481.50
2022-10-11T16:30:47.058Z,95474.13
2022-10-11T16:33:31.846Z,95482.91
2022-10-11T16:36:36.150Z,95482.69
2022-10-11T16:39:20.096Z,95475.06
2022-10-11T16:42:03.212Z,95483.41
2022-10-11T16:44:46.333Z,95479.34
2022-10-11T16:47:30.767Z,95483.06
2022-10-11T16:50:14.434Z,95489.66
2022-10-11T16:52:57.552Z,95486.38
2022-10-11T16:55:40.952Z,95486.81
2022-10-11T16:58:23.985Z,95487.94
2022-10-11T17:01:10.213Z,95488.78
2022-10-11T17:03:55.837Z,95491.53
2022-10-11T17:06:40.171Z,95485.53
2022-10-11T17:09:26.775Z,95495.03
2022-10-11T17:12:11.006Z,95489.94
2022-10-11T17:14:54.251Z,95494.16
2022-10-11T17:17:37.324Z,95491.19
2022-10-11T17:20:21.777Z,95490.09
2022-10-11T17:23:04.991Z,95496.44
2022-10-11T17:25:48.677Z,95494.28
2022-10-11T17:28:32.595Z,95505.09
2022-10-11T17:31:15.960Z,95489.78
2022-10-11T17:34:00.112Z,95499.66
2022-10-11T17:36:44.879Z,95502.91
2022-10-11T17:39:27.900Z,95500.78
2022-10-11T17:42:11.210Z,95490.81
2022-10-11T17:44:57.688Z,95496.47
2022-10-11T17:47:40.737Z,95493.06
2022-10-11T17:50:23.997Z,95498.28
2022-10-11T17:53:08.681Z,95504.53
2022-10-11T17:55:53.460Z,95503.88
2022-10-11T17:58:36.937Z,95506.94
2022-10-11T18:01:22.455Z,95505.81
2022-10-11T18:04:07.280Z,95502.94
2022-10-11T18:06:50.555Z,95517.97
2022-10-11T18:09:35.127Z,95510.56
2022-10-11T18:12:18.317Z,95508.41
2022-10-11T18:15:01.296Z,95508.75
2022-10-11T18:17:44.318Z,95509.28
2022-10-11T18:20:27.716Z,95515.56
2022-10-11T18:23:13.789Z,95509.41
2022-10-11T18:25:58.439Z,95511.38
2022-10-11T18:28:42.323Z,95515.66
2022-10-11T18:31:26.979Z,95512.94
2022-10-11T18:34:11.676Z,95514.63
2022-10-11T18:36:54.737Z,95515.56
2022-10-11T18:39:37.882Z,95512.94
2022-10-11T18:42:22.648Z,95519.28
2022-10-11T18:45:06.772Z,95508.38
2022-10-11T18:47:51.352Z,95513.84
2022-10-11T18:50:35.602Z,95516.09
2022-10-11T18:53:18.696Z,95518.59
2022-10-11T18:56:02.974Z,95521.34
2022-10-11T18:58:48.343Z,95528.72
2022-10-11T19:01:33.136Z,95511.09
2022-10-11T19:04:17.142Z,95517.69
2022-10-11T19:07:00.777Z,95523.94
2022-10-11T19:09:44.048Z,95522.84
2022-10-11T19:12:27.051Z,95520.78
2022-10-11T19:15:11.990Z,95513.06
2022-10-11T19:17:55.241Z,95520.00
2022-10-11T19:20:38.570Z,95518.41
2022-10-11T19:23:23.630Z,95525.31
2022-10-11T19:26:07.597Z,95528.50
2022-10-11T19:28:56.660Z,95521.25
2022-10-11T19:31:45.109Z,95522.53
2022-10-11T19:34:29.264Z,95528.88
2022-10-11T19:37:13.456Z,95518.53
2022-10-11T19:39:56.633Z,95529.13
2022-10-11T19:42:39.679Z,95523.00
2022-10-11T19:45:22.797Z,95533.75
2022-10-11T19:48:07.351Z,95539.44
2022-10-11T19:50:50.422Z,95545.47
2022-10-11T19:53:33.864Z,95536.06
2022-10-11T19:56:18.654Z,95545.13
2022-10-11T19:59:02.358Z,95539.44
2022-10-11T20:01:51.006Z,95540.59
2022-10-11T20:04:51.928Z,95542.97
2022-10-11T20:07:35.887Z,95545.94
2022-10-11T20:10:19.546Z,95535.13
2022-10-11T20:13:02.672Z,95543.91
2022-10-11T20:15:45.889Z,95536.38
2022-10-11T20:18:30.114Z,95543.91
2022-10-11T20:21:16.758Z,95542.19
2022-10-11T20:24:01.866Z,95542.19
2022-10-11T20:26:44.850Z,95539.91
2022-10-11T20:29:28.293Z,95540.38
2022-10-11T20:32:11.483Z,95546.34
2022-10-11T20:34:54.549Z,95538.03
2022-10-11T20:37:39.351Z,95545.91
2022-10-11T20:40:22.359Z,95550.22
2022-10-11T20:43:05.490Z,95535.78
2022-10-11T20:45:59.318Z,95550.13
2022-10-11T20:48:43.182Z,95542.88
2022-10-11T20:51:26.426Z,95547.19
2022-10-11T20:54:11.981Z,95541.47
2022-10-11T20:56:55.071Z,95542.19
2022-10-11T20:59:38.142Z,95547.41
2022-10-11T21:02:21.139Z,95545.91
2022-10-11T21:05:04.183Z,95551.50
2022-10-11T21:07:47.353Z,95548.44
2022-10-11T21:10:32.142Z,95548.44
2022-10-11T21:13:15.198Z,95552.72
2022-10-11T21:16:04.726Z,95550.97
2022-10-11T21:18:51.756Z,95551.56
2022-10-11T21:21:34.978Z,95542.94
2022-10-11T21:24:18.006Z,95542.03
2022-10-11T21:27:02.474Z,95540.88
2022-10-11T21:29:45.516Z,95534.50
2022-10-11T21:32:28.607Z,95536.78
2022-10-11T21:35:11.648Z,95536.44
2022-10-11T21:37:55.796Z,95530.78
2022-10-11T21:40:40.161Z,95535.66
2022-10-11T21:43:24.882Z,95532.00
2022-10-11T21:46:12.282Z,95531.91
2022-10-11T21:48:55.889Z,95531.34
2022-10-11T21:51:39.033Z,95537.59
2022-10-11T21:54:22.162Z,95533.97
2022-10-11T21:57:05.310Z,95536.00
2022-10-11T21:59:49.988Z,95524.41
2022-10-11T22:02:33.102Z,95531.34
2022-10-11T22:05:16.745Z,95537.13
2022-10-11T22:07:59.739Z,95530.78
2022-10-11T22:10:44.983Z,95537.59
2022-10-11T22:13:30.340Z,95528.28
2022-10-11T22:16:15.381Z,95524.97
2022-10-11T22:18:58.390Z,95524.88
2022-10-11T22:21:44.890Z,95525.78
2022-10-11T22:24:29.700Z,95529.41
2022-10-11T22:27:12.940Z,95525.06
2022-10-11T22:29:56.063Z,95530.16
2022-10-11T22:32:40.485Z,95525.06
2022-10-11T22:35:24.187Z,95520.19
2022-10-11T22:38:07.744Z,95524.41
2022-10-11T22:40:50.739Z,95523.81
2022-10-11T22:43:33.828Z,95528.13
2022-10-11T22:46:17.291Z,95528.94
2022-10-11T22:49:01.810Z,95534.16
2022-10-11T22:51:45.627Z,95538.03
2022-10-11T22:54:28.666Z,95538.03
2022-10-11T22:57:11.780Z,95541.66
2022-10-11T22:59:54.799Z,95539.63
2022-10-11T23:02:37.860Z,95536.66
2022-10-11T23:05:22.372Z,95548.38
2022-10-11T23:08:06.417Z,95546.88
2022-10-11T23:10:49.443Z,95494.53
2022-10-11T23:13:32.534Z,95546.44
2022-10-11T23:16:15.602Z,95543.84
2022-10-11T23:18:58.664Z,95544.16
2022-10-11T23:21:43.133Z,95545.88
2022-10-11T23:24:26.283Z,95532.88
2022-10-11T23:27:09.287Z,95537.31
2022-10-11T23:29:52.294Z,95539.81
2022-10-11T23:32:35.590Z,95542.75
2022-10-11T23:35:18.600Z,95549.78
2022-10-11T23:38:03.063Z,95537.84
2022-10-11T23:40:46.140Z,95540.25
2022-10-11T23:43:29.196Z,95548.81
2022-10-11T23:46:12.253Z,95544.06
2022-10-11T23:48:55.330Z,95544.47
2022-10-11T23:51:38.431Z,95543.66
2022-10-11T23:54:22.926Z,95545.09
2022-10-11T23:57:06.041Z,95541.50
2022-10-11T23:59:49.185Z,95548.03
